sensor_id;sensor_type;location;lat;lon;timestamp;temperature;humidity
13806;DHT22;6974;53.606;9.872;2023-09-08T00:02:23;20.10;99.90
13806;DHT22;6974;53.606;9.872;2023-09-08T00:04:50;20.10;99.90
13806;DHT22;6974;53.606;9.872;2023-09-08T00:07:18;20.10;99.90
13806;DHT22;6974;53.606;9.872;2023-09-08T00:09:45;20.00;99.90
13806;DHT22;6974;53.606;9.872;2023-09-08T00:12:13;20.10;99.90
13806;DHT22;6974;53.606;9.872;2023-09-08T00:14:40;20.00;99.90
13806;DHT22;6974;53.606;9.872;2023-09-08T00:17:07;20.00;99.90
13806;DHT22;6974;53.606;9.872;2023-09-08T00:19:34;20.00;99.90
13806;DHT22;6974;53.606;9.872;2023-09-08T00:22:01;20.00;99.90
13806;DHT22;6974;53.606;9.872;2023-09-08T00:24:28;20.00;99.90
13806;DHT22;6974;53.606;9.872;2023-09-08T00:26:55;20.00;99.90
13806;DHT22;6974;53.606;9.872;2023-09-08T00:29:24;19.90;99.90
13806;DHT22;6974;53.606;9.872;2023-09-08T00:31:51;19.90;99.90
13806;DHT22;6974;53.606;9.872;2023-09-08T00:34:18;19.80;99.90
13806;DHT22;6974;53.606;9.872;2023-09-08T00:36:47;19.80;99.90
13806;DHT22;6974;53.606;9.872;2023-09-08T00:39:14;19.80;99.90
13806;DHT22;6974;53.606;9.872;2023-09-08T00:41:40;19.80;99.90
13806;DHT22;6974;53.606;9.872;2023-09-08T00:44:07;19.80;99.90
13806;DHT22;6974;53.606;9.872;2023-09-08T00:46:38;19.70;99.90
13806;DHT22;6974;53.606;9.872;2023-09-08T00:49:06;19.70;99.90
13806;DHT22;6974;53.606;9.872;2023-09-08T00:51:34;19.60;99.90
13806;DHT22;6974;53.606;9.872;2023-09-08T00:54:04;19.60;99.90
13806;DHT22;6974;53.606;9.872;2023-09-08T00:56:33;19.60;99.90
13806;DHT22;6974;53.606;9.872;2023-09-08T00:59:00;19.60;99.90
13806;DHT22;6974;53.606;9.872;2023-09-08T01:01:28;19.50;99.90
13806;DHT22;6974;53.606;9.872;2023-09-08T01:03:56;19.50;99.90
13806;DHT22;6974;53.606;9.872;2023-09-08T01:06:24;19.50;99.90
13806;DHT22;6974;53.606;9.872;2023-09-08T01:08:52;19.50;99.90
13806;DHT22;6974;53.606;9.872;2023-09-08T01:11:20;19.50;99.90
13806;DHT22;6974;53.606;9.872;2023-09-08T01:13:47;19.50;99.90
13806;DHT22;6974;53.606;9.872;2023-09-08T01:16:13;19.50;99.90
13806;DHT22;6974;53.606;9.872;2023-09-08T01:18:40;19.50;99.90
13806;DHT22;6974;53.606;9.872;2023-09-08T01:21:39;19.40;99.90
13806;DHT22;6974;53.606;9.872;2023-09-08T01:24:30;19.50;99.90
13806;DHT22;6974;53.606;9.872;2023-09-08T01:27:03;19.40;99.90
13806;DHT22;6974;53.606;9.872;2023-09-08T01:29:32;19.40;99.90
13806;DHT22;6974;53.606;9.872;2023-09-08T01:32:00;19.40;99.90
13806;DHT22;6974;53.606;9.872;2023-09-08T01:34:27;19.30;99.90
13806;DHT22;6974;53.606;9.872;2023-09-08T01:36:54;19.30;99.90
13806;DHT22;6974;53.606;9.872;2023-09-08T01:39:22;19.20;99.90
13806;DHT22;6974;53.606;9.872;2023-09-08T01:41:50;19.20;99.90
13806;DHT22;6974;53.606;9.872;2023-09-08T01:44:18;19.30;99.90
13806;DHT22;6974;53.606;9.872;2023-09-08T01:46:45;19.20;99.90
13806;DHT22;6974;53.606;9.872;2023-09-08T01:49:12;19.20;99.90
13806;DHT22;6974;53.606;9.872;2023-09-08T01:51:39;19.20;99.90
13806;DHT22;6974;53.606;9.872;2023-09-08T01:54:06;19.20;99.90
13806;DHT22;6974;53.606;9.872;2023-09-08T01:56:33;19.20;99.90
13806;DHT22;6974;53.606;9.872;2023-09-08T01:59:00;19.20;99.90
13806;DHT22;6974;53.606;9.872;2023-09-08T02:01:28;19.10;99.90
13806;DHT22;6974;53.606;9.872;2023-09-08T02:03:55;19.10;99.90
13806;DHT22;6974;53.606;9.872;2023-09-08T02:06:23;19.00;99.90
13806;DHT22;6974;53.606;9.872;2023-09-08T02:08:50;19.00;99.90
13806;DHT22;6974;53.606;9.872;2023-09-08T02:11:16;19.00;99.90
13806;DHT22;6974;53.606;9.872;2023-09-08T02:13:43;18.90;99.90
13806;DHT22;6974;53.606;9.872;2023-09-08T02:16:13;18.90;99.90
13806;DHT22;6974;53.606;9.872;2023-09-08T02:18:41;18.80;99.90
13806;DHT22;6974;53.606;9.872;2023-09-08T02:21:09;18.80;99.90
13806;DHT22;6974;53.606;9.872;2023-09-08T02:23:35;18.80;99.90
13806;DHT22;6974;53.606;9.872;2023-09-08T02:26:03;18.80;99.90
13806;DHT22;6974;53.606;9.872;2023-09-08T02:28:30;18.70;99.90
13806;DHT22;6974;53.606;9.872;2023-09-08T02:30:57;18.80;99.90
13806;DHT22;6974;53.606;9.872;2023-09-08T02:33:24;18.80;99.90
13806;DHT22;6974;53.606;9.872;2023-09-08T02:35:52;18.80;99.90
13806;DHT22;6974;53.606;9.872;2023-09-08T02:38:19;18.80;99.90
13806;DHT22;6974;53.606;9.872;2023-09-08T02:40:46;18.80;99.90
13806;DHT22;6974;53.606;9.872;2023-09-08T02:43:13;18.80;99.90
13806;DHT22;6974;53.606;9.872;2023-09-08T02:45:40;18.80;99.90
13806;DHT22;6974;53.606;9.872;2023-09-08T02:48:07;18.80;99.90
13806;DHT22;6974;53.606;9.872;2023-09-08T02:50:34;18.80;99.90
13806;DHT22;6974;53.606;9.872;2023-09-08T02:53:03;18.70;99.90
13806;DHT22;6974;53.606;9.872;2023-09-08T02:55:30;18.70;99.90
13806;DHT22;6974;53.606;9.872;2023-09-08T02:57:57;18.70;99.90
13806;DHT22;6974;53.606;9.872;2023-09-08T03:00:25;18.60;99.90
13806;DHT22;6974;53.606;9.872;2023-09-08T03:02:51;18.60;99.90
13806;DHT22;6974;53.606;9.872;2023-09-08T03:05:18;18.50;99.90
13806;DHT22;6974;53.606;9.872;2023-09-08T03:07:47;18.60;99.90
13806;DHT22;6974;53.606;9.872;2023-09-08T03:10:16;18.60;99.90
13806;DHT22;6974;53.606;9.872;2023-09-08T03:12:43;18.60;99.90
13806;DHT22;6974;53.606;9.872;2023-09-08T03:15:10;18.60;99.90
13806;DHT22;6974;53.606;9.872;2023-09-08T03:17:37;18.60;99.90
13806;DHT22;6974;53.606;9.872;2023-09-08T03:20:06;18.60;99.90
13806;DHT22;6974;53.606;9.872;2023-09-08T03:22:33;18.60;99.90
13806;DHT22;6974;53.606;9.872;2023-09-08T03:25:00;18.70;99.90
13806;DHT22;6974;53.606;9.872;2023-09-08T03:27:30;18.60;99.90
13806;DHT22;6974;53.606;9.872;2023-09-08T03:29:57;18.60;99.90
13806;DHT22;6974;53.606;9.872;2023-09-08T03:32:24;18.60;99.90
13806;DHT22;6974;53.606;9.872;2023-09-08T03:34:51;18.60;99.90
13806;DHT22;6974;53.606;9.872;2023-09-08T03:37:18;18.60;99.90
13806;DHT22;6974;53.606;9.872;2023-09-08T03:39:45;18.70;99.90
13806;DHT22;6974;53.606;9.872;2023-09-08T03:42:12;18.70;99.90
13806;DHT22;6974;53.606;9.872;2023-09-08T03:44:41;18.60;99.90
13806;DHT22;6974;53.606;9.872;2023-09-08T03:47:08;18.60;99.90
13806;DHT22;6974;53.606;9.872;2023-09-08T03:49:35;18.60;99.90
13806;DHT22;6974;53.606;9.872;2023-09-08T03:52:02;18.60;99.90
13806;DHT22;6974;53.606;9.872;2023-09-08T03:54:30;18.60;99.90
13806;DHT22;6974;53.606;9.872;2023-09-08T03:56:57;18.60;99.90
13806;DHT22;6974;53.606;9.872;2023-09-08T03:59:24;18.60;99.90
13806;DHT22;6974;53.606;9.872;2023-09-08T04:01:52;18.70;99.90
13806;DHT22;6974;53.606;9.872;2023-09-08T04:04:20;18.60;99.90
13806;DHT22;6974;53.606;9.872;2023-09-08T04:06:47;18.60;99.90
13806;DHT22;6974;53.606;9.872;2023-09-08T04:09:14;18.60;99.90
13806;DHT22;6974;53.606;9.872;2023-09-08T04:11:41;18.60;99.90
13806;DHT22;6974;53.606;9.872;2023-09-08T04:14:08;18.60;99.90
13806;DHT22;6974;53.606;9.872;2023-09-08T04:16:35;18.60;99.90
13806;DHT22;6974;53.606;9.872;2023-09-08T04:19:04;18.60;99.90
13806;DHT22;6974;53.606;9.872;2023-09-08T04:21:30;18.60;99.90
13806;DHT22;6974;53.606;9.872;2023-09-08T04:23:57;18.60;99.90
13806;DHT22;6974;53.606;9.872;2023-09-08T04:26:24;18.60;99.90
13806;DHT22;6974;53.606;9.872;2023-09-08T04:28:51;18.50;99.90
13806;DHT22;6974;53.606;9.872;2023-09-08T04:31:18;18.50;99.90
13806;DHT22;6974;53.606;9.872;2023-09-08T04:33:47;18.60;99.90
13806;DHT22;6974;53.606;9.872;2023-09-08T04:36:15;18.50;99.90
13806;DHT22;6974;53.606;9.872;2023-09-08T04:38:42;18.50;99.90
13806;DHT22;6974;53.606;9.872;2023-09-08T04:41:10;18.50;99.90
13806;DHT22;6974;53.606;9.872;2023-09-08T04:43:37;18.50;99.90
13806;DHT22;6974;53.606;9.872;2023-09-08T04:46:04;18.50;99.90
13806;DHT22;6974;53.606;9.872;2023-09-08T04:48:31;18.50;99.90
13806;DHT22;6974;53.606;9.872;2023-09-08T04:50:58;18.50;99.90
13806;DHT22;6974;53.606;9.872;2023-09-08T04:53:26;18.50;99.90
13806;DHT22;6974;53.606;9.872;2023-09-08T04:55:53;18.50;99.90
13806;DHT22;6974;53.606;9.872;2023-09-08T04:58:20;18.50;99.90
13806;DHT22;6974;53.606;9.872;2023-09-08T05:00:47;18.50;99.90
13806;DHT22;6974;53.606;9.872;2023-09-08T05:03:14;18.50;99.90
13806;DHT22;6974;53.606;9.872;2023-09-08T05:05:41;18.50;99.90
13806;DHT22;6974;53.606;9.872;2023-09-08T05:08:10;18.50;99.90
13806;DHT22;6974;53.606;9.872;2023-09-08T05:10:39;18.60;99.90
13806;DHT22;6974;53.606;9.872;2023-09-08T05:13:06;18.60;99.90
13806;DHT22;6974;53.606;9.872;2023-09-08T05:15:34;18.60;99.90
13806;DHT22;6974;53.606;9.872;2023-09-08T05:18:03;18.70;99.90
13806;DHT22;6974;53.606;9.872;2023-09-08T05:20:30;18.60;99.90
13806;DHT22;6974;53.606;9.872;2023-09-08T05:22:57;18.60;99.90
13806;DHT22;6974;53.606;9.872;2023-09-08T05:25:24;18.60;99.90
13806;DHT22;6974;53.606;9.872;2023-09-08T05:27:54;18.60;99.90
13806;DHT22;6974;53.606;9.872;2023-09-08T05:30:21;18.60;99.90
13806;DHT22;6974;53.606;9.872;2023-09-08T05:32:49;18.60;99.90
13806;DHT22;6974;53.606;9.872;2023-09-08T05:35:16;18.70;99.90
13806;DHT22;6974;53.606;9.872;2023-09-08T05:37:43;18.70;99.90
13806;DHT22;6974;53.606;9.872;2023-09-08T05:40:11;18.70;99.90
13806;DHT22;6974;53.606;9.872;2023-09-08T05:42:37;18.70;99.90
13806;DHT22;6974;53.606;9.872;2023-09-08T05:45:07;18.80;99.90
13806;DHT22;6974;53.606;9.872;2023-09-08T05:47:34;18.80;99.90
13806;DHT22;6974;53.606;9.872;2023-09-08T05:50:01;18.90;99.90
13806;DHT22;6974;53.606;9.872;2023-09-08T05:52:28;18.90;99.90
13806;DHT22;6974;53.606;9.872;2023-09-08T05:54:55;18.90;99.90
13806;DHT22;6974;53.606;9.872;2023-09-08T05:57:22;18.80;99.90
13806;DHT22;6974;53.606;9.872;2023-09-08T05:59:48;18.90;99.90
13806;DHT22;6974;53.606;9.872;2023-09-08T06:02:17;18.90;99.90
13806;DHT22;6974;53.606;9.872;2023-09-08T06:04:43;19.00;99.90
13806;DHT22;6974;53.606;9.872;2023-09-08T06:07:10;19.10;99.90
13806;DHT22;6974;53.606;9.872;2023-09-08T06:09:37;19.20;99.90
13806;DHT22;6974;53.606;9.872;2023-09-08T06:12:05;19.20;99.90
13806;DHT22;6974;53.606;9.872;2023-09-08T06:14:32;19.20;99.90
13806;DHT22;6974;53.606;9.872;2023-09-08T06:16:58;19.20;99.90
13806;DHT22;6974;53.606;9.872;2023-09-08T06:19:27;19.20;99.90
13806;DHT22;6974;53.606;9.872;2023-09-08T06:21:53;19.30;99.90
13806;DHT22;6974;53.606;9.872;2023-09-08T06:24:20;19.30;99.90
13806;DHT22;6974;53.606;9.872;2023-09-08T06:26:47;19.40;99.90
13806;DHT22;6974;53.606;9.872;2023-09-08T06:29:15;19.40;99.90
13806;DHT22;6974;53.606;9.872;2023-09-08T06:31:41;19.40;99.90
13806;DHT22;6974;53.606;9.872;2023-09-08T06:34:08;19.40;99.90
13806;DHT22;6974;53.606;9.872;2023-09-08T06:36:39;19.60;99.90
13806;DHT22;6974;53.606;9.872;2023-09-08T06:39:05;19.60;99.90
13806;DHT22;6974;53.606;9.872;2023-09-08T06:41:32;19.60;99.90
13806;DHT22;6974;53.606;9.872;2023-09-08T06:43:59;19.70;99.90
13806;DHT22;6974;53.606;9.872;2023-09-08T06:46:26;19.60;99.90
13806;DHT22;6974;53.606;9.872;2023-09-08T06:48:53;19.70;99.90
13806;DHT22;6974;53.606;9.872;2023-09-08T06:51:20;19.90;99.90
13806;DHT22;6974;53.606;9.872;2023-09-08T06:53:55;20.00;99.90
13806;DHT22;6974;53.606;9.872;2023-09-08T06:56:23;20.00;99.90
13806;DHT22;6974;53.606;9.872;2023-09-08T06:58:49;20.10;99.90
13806;DHT22;6974;53.606;9.872;2023-09-08T07:01:17;20.10;99.90
13806;DHT22;6974;53.606;9.872;2023-09-08T07:03:44;20.10;99.90
13806;DHT22;6974;53.606;9.872;2023-09-08T07:06:11;20.20;99.90
13806;DHT22;6974;53.606;9.872;2023-09-08T07:08:39;20.20;99.90
13806;DHT22;6974;53.606;9.872;2023-09-08T07:11:07;20.30;99.90
13806;DHT22;6974;53.606;9.872;2023-09-08T07:13:34;20.40;99.90
13806;DHT22;6974;53.606;9.872;2023-09-08T07:16:01;20.40;99.90
13806;DHT22;6974;53.606;9.872;2023-09-08T07:18:28;20.50;99.90
13806;DHT22;6974;53.606;9.872;2023-09-08T07:20:58;20.50;99.90
13806;DHT22;6974;53.606;9.872;2023-09-08T07:23:24;20.60;99.90
13806;DHT22;6974;53.606;9.872;2023-09-08T07:25:51;20.60;99.90
13806;DHT22;6974;53.606;9.872;2023-09-08T07:28:20;20.70;99.90
13806;DHT22;6974;53.606;9.872;2023-09-08T07:30:46;20.60;99.90
13806;DHT22;6974;53.606;9.872;2023-09-08T07:33:13;20.70;99.90
13806;DHT22;6974;53.606;9.872;2023-09-08T07:35:40;20.70;99.90
13806;DHT22;6974;53.606;9.872;2023-09-08T07:38:07;20.70;99.90
13806;DHT22;6974;53.606;9.872;2023-09-08T07:40:34;20.80;99.90
13806;DHT22;6974;53.606;9.872;2023-09-08T07:43:02;20.80;99.90
13806;DHT22;6974;53.606;9.872;2023-09-08T07:45:33;20.90;99.90
13806;DHT22;6974;53.606;9.872;2023-09-08T07:48:00;21.00;99.90
13806;DHT22;6974;53.606;9.872;2023-09-08T07:50:29;21.00;99.90
13806;DHT22;6974;53.606;9.872;2023-09-08T07:52:57;21.00;99.90
13806;DHT22;6974;53.606;9.872;2023-09-08T07:55:24;21.00;99.90
13806;DHT22;6974;53.606;9.872;2023-09-08T07:57:53;21.10;99.90
13806;DHT22;6974;53.606;9.872;2023-09-08T08:00:20;21.20;99.90
13806;DHT22;6974;53.606;9.872;2023-09-08T08:02:50;21.20;99.90
13806;DHT22;6974;53.606;9.872;2023-09-08T08:05:17;21.30;99.90
13806;DHT22;6974;53.606;9.872;2023-09-08T08:07:44;21.30;99.90
13806;DHT22;6974;53.606;9.872;2023-09-08T08:10:12;21.40;99.90
13806;DHT22;6974;53.606;9.872;2023-09-08T08:12:45;21.40;99.90
13806;DHT22;6974;53.606;9.872;2023-09-08T08:15:11;21.50;99.90
13806;DHT22;6974;53.606;9.872;2023-09-08T08:17:39;21.50;99.90
13806;DHT22;6974;53.606;9.872;2023-09-08T08:20:09;21.40;99.90
13806;DHT22;6974;53.606;9.872;2023-09-08T08:22:43;21.60;99.90
13806;DHT22;6974;53.606;9.872;2023-09-08T08:25:12;21.60;99.90
13806;DHT22;6974;53.606;9.872;2023-09-08T08:27:39;21.70;99.90
13806;DHT22;6974;53.606;9.872;2023-09-08T08:30:07;21.80;99.90
13806;DHT22;6974;53.606;9.872;2023-09-08T08:32:34;21.80;99.90
13806;DHT22;6974;53.606;9.872;2023-09-08T08:35:05;21.90;99.90
13806;DHT22;6974;53.606;9.872;2023-09-08T08:37:34;22.10;99.90
13806;DHT22;6974;53.606;9.872;2023-09-08T08:40:01;22.10;99.90
13806;DHT22;6974;53.606;9.872;2023-09-08T08:42:33;22.20;99.90
13806;DHT22;6974;53.606;9.872;2023-09-08T08:45:00;22.30;99.90
13806;DHT22;6974;53.606;9.872;2023-09-08T08:47:28;22.30;99.90
13806;DHT22;6974;53.606;9.872;2023-09-08T08:50:02;22.30;99.90
13806;DHT22;6974;53.606;9.872;2023-09-08T08:52:30;22.30;99.90
13806;DHT22;6974;53.606;9.872;2023-09-08T08:54:59;22.40;99.90
13806;DHT22;6974;53.606;9.872;2023-09-08T08:57:27;22.40;99.90
13806;DHT22;6974;53.606;9.872;2023-09-08T08:59:54;22.50;99.90
13806;DHT22;6974;53.606;9.872;2023-09-08T09:02:21;22.60;99.90
13806;DHT22;6974;53.606;9.872;2023-09-08T09:04:49;22.60;99.90
13806;DHT22;6974;53.606;9.872;2023-09-08T09:07:18;22.70;99.90
13806;DHT22;6974;53.606;9.872;2023-09-08T09:09:45;22.70;99.90
13806;DHT22;6974;53.606;9.872;2023-09-08T09:12:13;22.80;99.90
13806;DHT22;6974;53.606;9.872;2023-09-08T09:14:45;22.90;99.90
13806;DHT22;6974;53.606;9.872;2023-09-08T09:17:14;23.00;99.90
13806;DHT22;6974;53.606;9.872;2023-09-08T09:19:41;23.10;99.90
13806;DHT22;6974;53.606;9.872;2023-09-08T09:22:07;23.20;99.90
13806;DHT22;6974;53.606;9.872;2023-09-08T09:24:36;23.40;99.90
13806;DHT22;6974;53.606;9.872;2023-09-08T09:27:09;23.60;99.90
13806;DHT22;6974;53.606;9.872;2023-09-08T09:29:44;23.90;99.90
13806;DHT22;6974;53.606;9.872;2023-09-08T09:32:12;24.10;99.90
13806;DHT22;6974;53.606;9.872;2023-09-08T09:34:47;24.40;99.90
13806;DHT22;6974;53.606;9.872;2023-09-08T09:37:15;24.70;99.90
13806;DHT22;6974;53.606;9.872;2023-09-08T09:39:42;25.00;99.90
13806;DHT22;6974;53.606;9.872;2023-09-08T09:42:09;25.20;99.90
13806;DHT22;6974;53.606;9.872;2023-09-08T09:44:35;25.50;99.90
13806;DHT22;6974;53.606;9.872;2023-09-08T09:47:04;25.70;99.90
13806;DHT22;6974;53.606;9.872;2023-09-08T09:49:32;26.00;99.90
13806;DHT22;6974;53.606;9.872;2023-09-08T09:52:07;26.20;99.90
13806;DHT22;6974;53.606;9.872;2023-09-08T09:54:34;26.30;99.90
13806;DHT22;6974;53.606;9.872;2023-09-08T09:57:01;26.40;99.90
13806;DHT22;6974;53.606;9.872;2023-09-08T09:59:29;26.60;99.90
13806;DHT22;6974;53.606;9.872;2023-09-08T10:01:56;26.70;99.90
13806;DHT22;6974;53.606;9.872;2023-09-08T10:04:25;26.80;99.90
13806;DHT22;6974;53.606;9.872;2023-09-08T10:06:52;26.90;99.90
13806;DHT22;6974;53.606;9.872;2023-09-08T10:09:20;26.90;99.90
13806;DHT22;6974;53.606;9.872;2023-09-08T10:11:49;27.10;99.90
13806;DHT22;6974;53.606;9.872;2023-09-08T10:14:18;27.20;99.90
13806;DHT22;6974;53.606;9.872;2023-09-08T10:16:46;27.30;99.90
13806;DHT22;6974;53.606;9.872;2023-09-08T10:19:19;27.40;99.90
13806;DHT22;6974;53.606;9.872;2023-09-08T10:21:49;27.50;99.90
13806;DHT22;6974;53.606;9.872;2023-09-08T10:24:22;27.70;99.90
13806;DHT22;6974;53.606;9.872;2023-09-08T10:27:00;27.70;99.90
13806;DHT22;6974;53.606;9.872;2023-09-08T10:29:30;27.70;99.90
13806;DHT22;6974;53.606;9.872;2023-09-08T10:31:58;27.80;99.90
13806;DHT22;6974;53.606;9.872;2023-09-08T10:34:26;27.80;99.90
13806;DHT22;6974;53.606;9.872;2023-09-08T10:36:55;28.00;99.90
13806;DHT22;6974;53.606;9.872;2023-09-08T10:39:32;28.00;99.90
13806;DHT22;6974;53.606;9.872;2023-09-08T10:42:23;28.10;99.90
13806;DHT22;6974;53.606;9.872;2023-09-08T10:45:02;28.30;99.90
13806;DHT22;6974;53.606;9.872;2023-09-08T10:47:54;28.40;99.90
13806;DHT22;6974;53.606;9.872;2023-09-08T10:50:27;28.50;99.90
13806;DHT22;6974;53.606;9.872;2023-09-08T10:53:08;28.60;99.90
13806;DHT22;6974;53.606;9.872;2023-09-08T10:55:39;28.60;99.90
13806;DHT22;6974;53.606;9.872;2023-09-08T10:58:09;28.60;99.90
13806;DHT22;6974;53.606;9.872;2023-09-08T11:00:44;28.70;99.90
13806;DHT22;6974;53.606;9.872;2023-09-08T11:03:12;28.80;99.90
13806;DHT22;6974;53.606;9.872;2023-09-08T11:05:42;28.80;99.90
13806;DHT22;6974;53.606;9.872;2023-09-08T11:08:11;28.80;99.90
13806;DHT22;6974;53.606;9.872;2023-09-08T11:10:39;28.80;99.90
13806;DHT22;6974;53.606;9.872;2023-09-08T11:13:07;28.90;99.90
13806;DHT22;6974;53.606;9.872;2023-09-08T11:15:34;29.00;99.90
13806;DHT22;6974;53.606;9.872;2023-09-08T11:18:05;29.10;99.90
13806;DHT22;6974;53.606;9.872;2023-09-08T11:20:33;29.20;99.90
13806;DHT22;6974;53.606;9.872;2023-09-08T11:23:00;29.20;99.90
13806;DHT22;6974;53.606;9.872;2023-09-08T11:25:29;29.30;99.90
13806;DHT22;6974;53.606;9.872;2023-09-08T11:27:57;29.30;99.90
13806;DHT22;6974;53.606;9.872;2023-09-08T11:30:25;29.30;99.90
13806;DHT22;6974;53.606;9.872;2023-09-08T11:32:52;29.40;99.90
13806;DHT22;6974;53.606;9.872;2023-09-08T11:35:19;29.50;99.90
13806;DHT22;6974;53.606;9.872;2023-09-08T11:37:46;29.60;99.90
13806;DHT22;6974;53.606;9.872;2023-09-08T11:40:15;29.70;99.90
13806;DHT22;6974;53.606;9.872;2023-09-08T11:42:44;29.80;99.90
13806;DHT22;6974;53.606;9.872;2023-09-08T11:45:11;29.90;99.90
13806;DHT22;6974;53.606;9.872;2023-09-08T11:47:43;29.90;99.90
13806;DHT22;6974;53.606;9.872;2023-09-08T11:50:10;29.90;99.90
13806;DHT22;6974;53.606;9.872;2023-09-08T11:52:42;29.90;99.90
13806;DHT22;6974;53.606;9.872;2023-09-08T11:55:10;29.90;99.90
13806;DHT22;6974;53.606;9.872;2023-09-08T11:57:38;29.70;99.90
13806;DHT22;6974;53.606;9.872;2023-09-08T12:00:08;29.70;99.90
13806;DHT22;6974;53.606;9.872;2023-09-08T12:02:41;29.60;99.90
13806;DHT22;6974;53.606;9.872;2023-09-08T12:05:11;29.50;99.90
13806;DHT22;6974;53.606;9.872;2023-09-08T12:07:39;29.40;99.90
13806;DHT22;6974;53.606;9.872;2023-09-08T12:10:10;29.40;99.90
13806;DHT22;6974;53.606;9.872;2023-09-08T12:12:45;29.10;99.90
13806;DHT22;6974;53.606;9.872;2023-09-08T12:15:29;29.00;99.90
13806;DHT22;6974;53.606;9.872;2023-09-08T12:17:57;28.90;99.90
13806;DHT22;6974;53.606;9.872;2023-09-08T12:20:24;28.80;99.90
13806;DHT22;6974;53.606;9.872;2023-09-08T12:22:51;28.60;99.90
13806;DHT22;6974;53.606;9.872;2023-09-08T12:25:19;28.60;99.90
13806;DHT22;6974;53.606;9.872;2023-09-08T12:27:50;28.50;99.90
13806;DHT22;6974;53.606;9.872;2023-09-08T12:30:19;28.50;99.90
13806;DHT22;6974;53.606;9.872;2023-09-08T12:32:48;28.30;99.90
13806;DHT22;6974;53.606;9.872;2023-09-08T12:35:20;28.30;99.90
13806;DHT22;6974;53.606;9.872;2023-09-08T12:37:57;28.20;99.90
13806;DHT22;6974;53.606;9.872;2023-09-08T12:40:29;28.20;99.90
13806;DHT22;6974;53.606;9.872;2023-09-08T12:42:56;28.10;99.90
13806;DHT22;6974;53.606;9.872;2023-09-08T12:45:27;28.00;99.90
13806;DHT22;6974;53.606;9.872;2023-09-08T12:47:57;28.00;99.90
13806;DHT22;6974;53.606;9.872;2023-09-08T12:50:25;28.00;99.90
13806;DHT22;6974;53.606;9.872;2023-09-08T12:52:52;28.00;99.90
13806;DHT22;6974;53.606;9.872;2023-09-08T12:55:19;28.00;99.90
13806;DHT22;6974;53.606;9.872;2023-09-08T12:57:46;28.00;99.90
13806;DHT22;6974;53.606;9.872;2023-09-08T13:00:18;28.00;99.90
13806;DHT22;6974;53.606;9.872;2023-09-08T13:02:46;27.90;99.90
13806;DHT22;6974;53.606;9.872;2023-09-08T13:05:13;27.90;99.90
13806;DHT22;6974;53.606;9.872;2023-09-08T13:07:46;28.00;99.90
13806;DHT22;6974;53.606;9.872;2023-09-08T13:10:13;27.90;99.90
13806;DHT22;6974;53.606;9.872;2023-09-08T13:12:41;27.90;99.90
13806;DHT22;6974;53.606;9.872;2023-09-08T13:15:08;28.00;99.90
13806;DHT22;6974;53.606;9.872;2023-09-08T13:17:35;28.00;99.90
13806;DHT22;6974;53.606;9.872;2023-09-08T13:20:05;28.00;99.90
13806;DHT22;6974;53.606;9.872;2023-09-08T13:22:32;27.90;99.90
13806;DHT22;6974;53.606;9.872;2023-09-08T13:25:06;28.00;99.90
13806;DHT22;6974;53.606;9.872;2023-09-08T13:27:34;28.00;99.90
13806;DHT22;6974;53.606;9.872;2023-09-08T13:30:21;28.00;99.90
13806;DHT22;6974;53.606;9.872;2023-09-08T13:32:52;28.10;99.90
13806;DHT22;6974;53.606;9.872;2023-09-08T13:35:21;28.20;99.90
13806;DHT22;6974;53.606;9.872;2023-09-08T13:37:48;28.30;99.90
13806;DHT22;6974;53.606;9.872;2023-09-08T13:40:15;28.40;99.90
13806;DHT22;6974;53.606;9.872;2023-09-08T13:42:42;28.40;99.90
13806;DHT22;6974;53.606;9.872;2023-09-08T13:45:12;28.50;99.90
13806;DHT22;6974;53.606;9.872;2023-09-08T13:50:23;28.60;99.90
13806;DHT22;6974;53.606;9.872;2023-09-08T13:53:19;28.70;99.90
13806;DHT22;6974;53.606;9.872;2023-09-08T13:56:04;28.80;99.90
13806;DHT22;6974;53.606;9.872;2023-09-08T13:58:31;28.90;99.90
13806;DHT22;6974;53.606;9.872;2023-09-08T14:01:16;29.00;99.90
13806;DHT22;6974;53.606;9.872;2023-09-08T14:03:44;29.10;99.90
13806;DHT22;6974;53.606;9.872;2023-09-08T14:06:16;29.20;99.90
13806;DHT22;6974;53.606;9.872;2023-09-08T14:08:43;29.30;99.90
13806;DHT22;6974;53.606;9.872;2023-09-08T14:11:09;29.40;99.90
13806;DHT22;6974;53.606;9.872;2023-09-08T14:13:37;29.40;99.90
13806;DHT22;6974;53.606;9.872;2023-09-08T14:16:04;29.50;99.90
13806;DHT22;6974;53.606;9.872;2023-09-08T14:18:31;29.50;99.90
13806;DHT22;6974;53.606;9.872;2023-09-08T14:20:58;29.50;99.90
13806;DHT22;6974;53.606;9.872;2023-09-08T14:23:27;29.50;99.90
13806;DHT22;6974;53.606;9.872;2023-09-08T14:25:54;29.50;99.90
13806;DHT22;6974;53.606;9.872;2023-09-08T14:28:21;29.50;99.90
13806;DHT22;6974;53.606;9.872;2023-09-08T14:30:49;29.40;99.90
13806;DHT22;6974;53.606;9.872;2023-09-08T14:33:17;29.40;99.90
13806;DHT22;6974;53.606;9.872;2023-09-08T14:35:44;29.40;99.90
13806;DHT22;6974;53.606;9.872;2023-09-08T14:38:13;29.40;99.90
13806;DHT22;6974;53.606;9.872;2023-09-08T14:40:43;29.30;99.90
13806;DHT22;6974;53.606;9.872;2023-09-08T14:43:11;29.30;99.90
13806;DHT22;6974;53.606;9.872;2023-09-08T14:45:38;29.20;99.90
13806;DHT22;6974;53.606;9.872;2023-09-08T14:48:05;29.20;99.90
13806;DHT22;6974;53.606;9.872;2023-09-08T14:50:33;29.10;99.90
13806;DHT22;6974;53.606;9.872;2023-09-08T14:53:00;29.10;99.90
13806;DHT22;6974;53.606;9.872;2023-09-08T14:55:26;29.10;99.90
13806;DHT22;6974;53.606;9.872;2023-09-08T14:57:55;29.00;99.90
13806;DHT22;6974;53.606;9.872;2023-09-08T15:00:22;29.00;99.90
13806;DHT22;6974;53.606;9.872;2023-09-08T15:02:48;29.00;99.90
13806;DHT22;6974;53.606;9.872;2023-09-08T15:05:15;29.00;99.90
13806;DHT22;6974;53.606;9.872;2023-09-08T15:07:42;29.10;99.90
13806;DHT22;6974;53.606;9.872;2023-09-08T15:10:09;29.00;99.90
13806;DHT22;6974;53.606;9.872;2023-09-08T15:12:36;29.00;99.90
13806;DHT22;6974;53.606;9.872;2023-09-08T15:15:06;28.90;99.90
13806;DHT22;6974;53.606;9.872;2023-09-08T15:17:33;29.00;99.90
13806;DHT22;6974;53.606;9.872;2023-09-08T15:20:00;29.00;99.90
13806;DHT22;6974;53.606;9.872;2023-09-08T15:22:28;29.10;99.90
13806;DHT22;6974;53.606;9.872;2023-09-08T15:24:55;29.10;99.90
13806;DHT22;6974;53.606;9.872;2023-09-08T15:27:22;29.10;99.90
13806;DHT22;6974;53.606;9.872;2023-09-08T15:29:49;29.10;99.90
13806;DHT22;6974;53.606;9.872;2023-09-08T15:32:17;29.10;99.90
13806;DHT22;6974;53.606;9.872;2023-09-08T15:34:44;29.00;99.90
13806;DHT22;6974;53.606;9.872;2023-09-08T15:37:15;28.90;99.90
13806;DHT22;6974;53.606;9.872;2023-09-08T15:39:42;28.80;99.90
13806;DHT22;6974;53.606;9.872;2023-09-08T15:42:12;28.70;99.90
13806;DHT22;6974;53.606;9.872;2023-09-08T15:44:48;28.60;99.90
13806;DHT22;6974;53.606;9.872;2023-09-08T16:01:17;28.10;99.90
13806;DHT22;6974;53.606;9.872;2023-09-08T16:07:28;28.00;99.90
13806;DHT22;6974;53.606;9.872;2023-09-08T16:11:16;27.90;99.90
13806;DHT22;6974;53.606;9.872;2023-09-08T16:20:34;27.70;99.90
13806;DHT22;6974;53.606;9.872;2023-09-08T16:23:16;27.70;99.90